sensor_id;sensor_type;location;lat;lon;timestamp;pressure;altitude;pressure_sealevel;temperature;humidity
31088;BME280;17745;55.914;37.554;2023-03-26T00:00:13;97758.19;;;10.51;63.88
31088;BME280;17745;55.914;37.554;2023-03-26T00:02:41;97764.81;;;10.49;63.98
31088;BME280;17745;55.914;37.554;2023-03-26T00:05:11;97768.81;;;10.46;64.00
31088;BME280;17745;55.914;37.554;2023-03-26T00:07:41;97775.75;;;10.42;64.05
31088;BME280;17745;55.914;37.554;2023-03-26T00:10:10;97773.91;;;10.42;64.03
31088;BME280;17745;55.914;37.554;2023-03-26T00:12:38;97769.13;;;10.39;63.86
31088;BME280;17745;55.914;37.554;2023-03-26T00:15:10;97772.09;;;10.38;63.77
31088;BME280;17745;55.914;37.554;2023-03-26T00:17:38;97767.87;;;10.37;63.63
31088;BME280;17745;55.914;37.554;2023-03-26T00:20:07;97771.28;;;10.37;63.50
31088;BME280;17745;55.914;37.554;2023-03-26T00:22:37;97763.84;;;10.39;63.49
31088;BME280;17745;55.914;37.554;2023-03-26T00:25:06;97763.84;;;10.39;63.55
31088;BME280;17745;55.914;37.554;2023-03-26T00:27:34;97761.19;;;10.39;63.59
31088;BME280;17745;55.914;37.554;2023-03-26T00:30:04;97764.91;;;10.38;63.49
31088;BME280;17745;55.914;37.554;2023-03-26T00:32:34;97775.56;;;10.33;63.58
31088;BME280;17745;55.914;37.554;2023-03-26T00:35:02;97766.88;;;10.33;63.54
31088;BME280;17745;55.914;37.554;2023-03-26T00:37:34;97773.22;;;10.32;63.56
31088;BME280;17745;55.914;37.554;2023-03-26T00:40:03;97772.94;;;10.33;63.57
31088;BME280;17745;55.914;37.554;2023-03-26T00:42:37;97771.66;;;10.30;63.67
31088;BME280;17745;55.914;37.554;2023-03-26T00:45:06;97775.66;;;10.28;63.63
31088;BME280;17745;55.914;37.554;2023-03-26T00:47:36;97774.16;;;10.22;63.64
31088;BME280;17745;55.914;37.554;2023-03-26T00:50:07;97766.28;;;10.16;63.65
31088;BME280;17745;55.914;37.554;2023-03-26T00:52:41;97756.03;;;10.10;63.70
31088;BME280;17745;55.914;37.554;2023-03-26T00:55:12;97754.47;;;10.09;63.70
31088;BME280;17745;55.914;37.554;2023-03-26T00:57:41;97758.97;;;10.08;63.77
31088;BME280;17745;55.914;37.554;2023-03-26T01:00:15;97756.03;;;10.10;63.80
31088;BME280;17745;55.914;37.554;2023-03-26T01:02:47;97755.50;;;10.13;63.83
31088;BME280;17745;55.914;37.554;2023-03-26T01:05:40;97762.06;;;10.15;63.76
31088;BME280;17745;55.914;37.554;2023-03-26T01:08:17;97757.00;;;10.19;63.74
31088;BME280;17745;55.914;37.554;2023-03-26T01:10:49;97753.84;;;10.17;63.77
31088;BME280;17745;55.914;37.554;2023-03-26T01:13:20;97757.56;;;10.16;63.70
31088;BME280;17745;55.914;37.554;2023-03-26T01:15:50;97753.34;;;10.15;63.65
31088;BME280;17745;55.914;37.554;2023-03-26T01:18:21;97754.69;;;10.12;63.58
31088;BME280;17745;55.914;37.554;2023-03-26T01:20:54;97745.47;;;10.10;63.62
31088;BME280;17745;55.914;37.554;2023-03-26T01:23:37;97741.25;;;10.09;63.60
31088;BME280;17745;55.914;37.554;2023-03-26T01:26:12;97742.31;;;10.08;63.50
31088;BME280;17745;55.914;37.554;2023-03-26T01:28:44;97747.09;;;10.06;63.44
31088;BME280;17745;55.914;37.554;2023-03-26T01:31:17;97751.13;;;10.03;63.41
31088;BME280;17745;55.914;37.554;2023-03-26T01:33:57;97751.41;;;10.01;63.50
31088;BME280;17745;55.914;37.554;2023-03-26T01:36:38;97742.47;;;9.97;63.58
31088;BME280;17745;55.914;37.554;2023-03-26T01:39:12;97747.25;;;9.95;63.65
31088;BME280;17745;55.914;37.554;2023-03-26T01:41:48;97744.69;;;9.90;63.73
31088;BME280;17745;55.914;37.554;2023-03-26T01:44:24;97745.22;;;9.87;63.73
31088;BME280;17745;55.914;37.554;2023-03-26T01:46:54;97739.75;;;9.83;63.77
31088;BME280;17745;55.914;37.554;2023-03-26T01:49:27;97748.22;;;9.80;63.74
31088;BME280;17745;55.914;37.554;2023-03-26T01:51:57;97743.50;;;9.77;63.76
31088;BME280;17745;55.914;37.554;2023-03-26T01:54:28;97747.50;;;9.75;63.67
31088;BME280;17745;55.914;37.554;2023-03-26T01:57:09;97748.84;;;9.72;63.61
31088;BME280;17745;55.914;37.554;2023-03-26T02:00:02;97751.56;;;9.67;63.64
31088;BME280;17745;55.914;37.554;2023-03-26T02:02:46;97742.06;;;9.66;63.77
31088;BME280;17745;55.914;37.554;2023-03-26T02:05:23;97735.19;;;9.65;63.77
31088;BME280;17745;55.914;37.554;2023-03-26T02:07:57;97729.41;;;9.63;63.79
31088;BME280;17745;55.914;37.554;2023-03-26T02:10:30;97727.09;;;9.56;63.54
31088;BME280;17745;55.914;37.554;2023-03-26T02:13:04;97729.47;;;9.33;63.41
31088;BME280;17745;55.914;37.554;2023-03-26T02:15:33;97722.75;;;9.17;63.69
31088;BME280;17745;55.914;37.554;2023-03-26T02:18:04;97726.53;;;9.10;63.98
31088;BME280;17745;55.914;37.554;2023-03-26T02:20:32;97724.38;;;9.12;64.08
31088;BME280;17745;55.914;37.554;2023-03-26T02:23:00;97727.22;;;9.16;64.05
31088;BME280;17745;55.914;37.554;2023-03-26T02:25:30;97722.19;;;9.20;64.03
31088;BME280;17745;55.914;37.554;2023-03-26T02:28:00;97724.22;;;9.28;63.99
31088;BME280;17745;55.914;37.554;2023-03-26T02:30:32;97723.69;;;9.31;63.96
31088;BME280;17745;55.914;37.554;2023-03-26T02:33:02;97714.94;;;9.30;63.82
31088;BME280;17745;55.914;37.554;2023-03-26T02:35:33;97726.09;;;9.27;63.77
31088;BME280;17745;55.914;37.554;2023-03-26T02:38:01;97722.13;;;9.25;63.79
31088;BME280;17745;55.914;37.554;2023-03-26T02:40:30;97724.00;;;9.24;64.00
31088;BME280;17745;55.914;37.554;2023-03-26T02:42:59;97718.44;;;9.26;64.14
31088;BME280;17745;55.914;37.554;2023-03-26T02:45:28;97721.56;;;9.28;64.08
31088;BME280;17745;55.914;37.554;2023-03-26T02:48:10;97710.75;;;9.29;64.03
31088;BME280;17745;55.914;37.554;2023-03-26T02:50:50;97703.62;;;9.30;63.98
31088;BME280;17745;55.914;37.554;2023-03-26T02:53:21;97709.41;;;9.32;63.95
31088;BME280;17745;55.914;37.554;2023-03-26T02:55:57;97710.97;;;9.33;63.96
31088;BME280;17745;55.914;37.554;2023-03-26T02:58:26;97708.34;;;9.33;64.01
31088;BME280;17745;55.914;37.554;2023-03-26T03:00:56;97707.25;;;9.34;64.04
31088;BME280;17745;55.914;37.554;2023-03-26T03:03:26;97706.19;;;9.35;64.03
31088;BME280;17745;55.914;37.554;2023-03-26T03:06:03;97700.91;;;9.35;63.90
31088;BME280;17745;55.914;37.554;2023-03-26T03:08:34;97701.25;;;9.28;63.86
31088;BME280;17745;55.914;37.554;2023-03-26T03:11:17;97691.81;;;9.22;63.73
31088;BME280;17745;55.914;37.554;2023-03-26T03:13:51;97695.56;;;9.16;63.80
31088;BME280;17745;55.914;37.554;2023-03-26T03:16:20;97694.59;;;9.07;63.90
31088;BME280;17745;55.914;37.554;2023-03-26T03:18:49;97690.22;;;8.97;64.11
31088;BME280;17745;55.914;37.554;2023-03-26T03:21:23;97690.78;;;8.94;64.22
31088;BME280;17745;55.914;37.554;2023-03-26T03:23:50;97683.91;;;8.93;64.14
31088;BME280;17745;55.914;37.554;2023-03-26T03:29:05;97674.94;;;8.94;64.13
31088;BME280;17745;55.914;37.554;2023-03-26T03:31:34;97668.59;;;8.95;64.02
31088;BME280;17745;55.914;37.554;2023-03-26T03:34:05;97670.97;;;8.91;63.91
31088;BME280;17745;55.914;37.554;2023-03-26T03:36:33;97661.78;;;8.89;63.96
31088;BME280;17745;55.914;37.554;2023-03-26T03:39:04;97661.56;;;8.85;63.99
31088;BME280;17745;55.914;37.554;2023-03-26T03:41:34;97667.41;;;8.82;64.06
31088;BME280;17745;55.914;37.554;2023-03-26T03:44:03;97661.87;;;8.78;64.14
31088;BME280;17745;55.914;37.554;2023-03-26T03:46:31;97658.72;;;8.76;64.17
31088;BME280;17745;55.914;37.554;2023-03-26T03:49:00;97652.38;;;8.77;64.10
31088;BME280;17745;55.914;37.554;2023-03-26T03:51:32;97647.91;;;8.78;64.04
31088;BME280;17745;55.914;37.554;2023-03-26T03:54:03;97647.63;;;8.79;63.98
31088;BME280;17745;55.914;37.554;2023-03-26T03:56:32;97642.91;;;8.76;63.97
31088;BME280;17745;55.914;37.554;2023-03-26T03:59:04;97640.53;;;8.75;64.04
31088;BME280;17745;55.914;37.554;2023-03-26T04:01:34;97646.03;;;8.78;64.07
31088;BME280;17745;55.914;37.554;2023-03-26T04:04:09;97639.44;;;8.81;64.04
31088;BME280;17745;55.914;37.554;2023-03-26T04:06:39;97641.22;;;8.85;63.95
31088;BME280;17745;55.914;37.554;2023-03-26T04:09:10;97642.53;;;8.88;63.93
31088;BME280;17745;55.914;37.554;2023-03-26T04:11:39;97636.69;;;8.91;63.84
31088;BME280;17745;55.914;37.554;2023-03-26T04:14:07;97640.56;;;8.99;63.71
31088;BME280;17745;55.914;37.554;2023-03-26T04:16:40;97629.94;;;9.04;63.68
31088;BME280;17745;55.914;37.554;2023-03-26T04:19:12;97629.91;;;9.09;63.70
31088;BME280;17745;55.914;37.554;2023-03-26T04:21:49;97626.41;;;9.14;63.66
31088;BME280;17745;55.914;37.554;2023-03-26T04:24:31;97625.56;;;9.19;63.64
31088;BME280;17745;55.914;37.554;2023-03-26T04:27:24;97614.72;;;9.20;63.61
31088;BME280;17745;55.914;37.554;2023-03-26T04:30:24;97621.34;;;9.18;63.59
31088;BME280;17745;55.914;37.554;2023-03-26T04:33:20;97614.78;;;9.15;63.69
31088;BME280;17745;55.914;37.554;2023-03-26T04:39:11;97617.53;;;9.29;63.70
31088;BME280;17745;55.914;37.554;2023-03-26T04:41:53;97619.53;;;9.37;63.58
31088;BME280;17745;55.914;37.554;2023-03-26T04:44:31;97613.34;;;9.47;63.32
31088;BME280;17745;55.914;37.554;2023-03-26T04:47:35;97614.00;;;9.58;63.10
31088;BME280;17745;55.914;37.554;2023-03-26T04:50:22;97612.00;;;9.69;62.98
31088;BME280;17745;55.914;37.554;2023-03-26T04:53:11;97605.88;;;9.73;62.99
31088;BME280;17745;55.914;37.554;2023-03-26T04:56:25;97604.97;;;9.78;62.98
31088;BME280;17745;55.914;37.554;2023-03-26T04:59:12;97599.84;;;9.87;63.00
31088;BME280;17745;55.914;37.554;2023-03-26T05:02:18;97603.41;;;9.96;62.93
31088;BME280;17745;55.914;37.554;2023-03-26T05:06:08;97599.34;;;10.04;62.90
31088;BME280;17745;55.914;37.554;2023-03-26T05:13:57;97589.44;;;10.29;62.42
31088;BME280;17745;55.914;37.554;2023-03-26T05:17:14;97588.94;;;10.27;62.35
31088;BME280;17745;55.914;37.554;2023-03-26T05:19:58;97575.97;;;10.25;62.16
31088;BME280;17745;55.914;37.554;2023-03-26T05:22:33;97581.38;;;10.20;62.33
31088;BME280;17745;55.914;37.554;2023-03-26T05:25:07;97588.31;;;10.16;62.48
31088;BME280;17745;55.914;37.554;2023-03-26T05:27:38;97581.47;;;10.15;62.51
31088;BME280;17745;55.914;37.554;2023-03-26T05:30:17;97582.53;;;10.14;62.55
31088;BME280;17745;55.914;37.554;2023-03-26T05:32:56;97583.88;;;10.11;62.64
31088;BME280;17745;55.914;37.554;2023-03-26T05:35:33;97578.59;;;10.11;62.77
31088;BME280;17745;55.914;37.554;2023-03-26T05:38:11;97578.00;;;10.14;62.67
31088;BME280;17745;55.914;37.554;2023-03-26T05:40:49;97577.94;;;10.20;62.71
31088;BME280;17745;55.914;37.554;2023-03-26T05:43:21;97579.22;;;10.22;62.64
31088;BME280;17745;55.914;37.554;2023-03-26T05:45:59;97581.84;;;10.22;62.71
31088;BME280;17745;55.914;37.554;2023-03-26T05:48:32;97577.66;;;10.21;62.69
31088;BME280;17745;55.914;37.554;2023-03-26T05:51:15;97582.94;;;10.21;62.66
31088;BME280;17745;55.914;37.554;2023-03-26T05:53:58;97565.34;;;10.30;62.58
31088;BME280;17745;55.914;37.554;2023-03-26T05:56:47;97569.94;;;10.39;62.34
31088;BME280;17745;55.914;37.554;2023-03-26T05:59:27;97565.66;;;10.43;62.31
31088;BME280;17745;55.914;37.554;2023-03-26T06:02:20;97567.53;;;10.42;62.40
31088;BME280;17745;55.914;37.554;2023-03-26T06:05:07;97563.25;;;10.47;62.42
31088;BME280;17745;55.914;37.554;2023-03-26T06:07:43;97564.81;;;10.48;62.44
31088;BME280;17745;55.914;37.554;2023-03-26T06:10:16;97563.50;;;10.45;62.50
31088;BME280;17745;55.914;37.554;2023-03-26T06:12:51;97556.06;;;10.47;62.61
31088;BME280;17745;55.914;37.554;2023-03-26T06:15:30;97560.22;;;10.53;62.61
31088;BME280;17745;55.914;37.554;2023-03-26T06:18:20;97551.09;;;10.60;62.62
31088;BME280;17745;55.914;37.554;2023-03-26T06:21:00;97542.47;;;10.68;62.61
31088;BME280;17745;55.914;37.554;2023-03-26T06:23:30;97544.94;;;10.78;62.50
31088;BME280;17745;55.914;37.554;2023-03-26T06:26:04;97537.97;;;10.82;62.37
31088;BME280;17745;55.914;37.554;2023-03-26T06:28:45;97537.84;;;10.87;62.28
31088;BME280;17745;55.914;37.554;2023-03-26T06:31:24;97533.63;;;10.86;62.06
31088;BME280;17745;55.914;37.554;2023-03-26T06:33:57;97537.25;;;10.91;62.29
31088;BME280;17745;55.914;37.554;2023-03-26T06:36:28;97532.37;;;10.98;62.29
31088;BME280;17745;55.914;37.554;2023-03-26T06:39:01;97527.25;;;11.01;62.19
31088;BME280;17745;55.914;37.554;2023-03-26T06:41:39;97522.75;;;11.02;62.28
31088;BME280;17745;55.914;37.554;2023-03-26T06:44:29;97530.91;;;11.06;62.18
31088;BME280;17745;55.914;37.554;2023-03-26T06:47:20;97525.78;;;11.09;62.15
31088;BME280;17745;55.914;37.554;2023-03-26T06:50:25;97526.44;;;11.15;62.20
31088;BME280;17745;55.914;37.554;2023-03-26T06:53:03;97525.78;;;11.23;61.97
31088;BME280;17745;55.914;37.554;2023-03-26T06:55:55;97526.13;;;11.30;62.05
31088;BME280;17745;55.914;37.554;2023-03-26T06:59:01;97518.47;;;11.43;61.85
31088;BME280;17745;55.914;37.554;2023-03-26T07:02:01;97516.69;;;11.38;61.55
31088;BME280;17745;55.914;37.554;2023-03-26T07:04:43;97521.44;;;11.27;61.57
31088;BME280;17745;55.914;37.554;2023-03-26T07:07:34;97518.09;;;11.22;61.78
31088;BME280;17745;55.914;37.554;2023-03-26T07:10:18;97517.13;;;11.18;61.92
31088;BME280;17745;55.914;37.554;2023-03-26T07:12:54;97522.56;;;11.12;62.05
31088;BME280;17745;55.914;37.554;2023-03-26T07:15:32;97507.72;;;11.11;62.24
31088;BME280;17745;55.914;37.554;2023-03-26T07:18:13;97509.47;;;11.16;62.09
31088;BME280;17745;55.914;37.554;2023-03-26T07:21:14;97503.00;;;11.08;61.97
31088;BME280;17745;55.914;37.554;2023-03-26T07:23:53;97497.66;;;10.85;62.00
31088;BME280;17745;55.914;37.554;2023-03-26T07:26:31;97502.16;;;10.71;61.94
31088;BME280;17745;55.914;37.554;2023-03-26T07:29:06;97495.91;;;10.67;62.12
31088;BME280;17745;55.914;37.554;2023-03-26T07:31:49;97497.47;;;10.68;61.99
31088;BME280;17745;55.914;37.554;2023-03-26T07:34:49;97483.75;;;10.52;61.78
31088;BME280;17745;55.914;37.554;2023-03-26T07:37:39;97486.00;;;10.30;62.05
31088;BME280;17745;55.914;37.554;2023-03-26T07:40:44;97487.13;;;10.10;62.36
31088;BME280;17745;55.914;37.554;2023-03-26T07:47:36;97479.41;;;9.81;63.02
31088;BME280;17745;55.914;37.554;2023-03-26T07:50:26;97479.97;;;9.64;63.24
31088;BME280;17745;55.914;37.554;2023-03-26T07:55:56;97471.41;;;9.53;63.54
31088;BME280;17745;55.914;37.554;2023-03-26T07:58:57;97467.69;;;9.35;63.90
31088;BME280;17745;55.914;37.554;2023-03-26T08:04:57;97464.06;;;9.30;64.09
31088;BME280;17745;55.914;37.554;2023-03-26T08:07:49;97458.56;;;9.27;64.24
31088;BME280;17745;55.914;37.554;2023-03-26T08:10:36;97458.50;;;9.32;64.28
31088;BME280;17745;55.914;37.554;2023-03-26T08:14:01;97451.56;;;9.36;64.27
31088;BME280;17745;55.914;37.554;2023-03-26T08:16:36;97445.06;;;9.48;64.16
31088;BME280;17745;55.914;37.554;2023-03-26T08:19:28;97440.13;;;9.60;63.96
31088;BME280;17745;55.914;37.554;2023-03-26T08:22:12;97435.62;;;9.61;64.08
31088;BME280;17745;55.914;37.554;2023-03-26T08:24:59;97436.12;;;9.63;64.09
31088;BME280;17745;55.914;37.554;2023-03-26T08:27:57;97429.78;;;9.78;64.13
31088;BME280;17745;55.914;37.554;2023-03-26T08:30:59;97431.75;;;9.86;64.17
31088;BME280;17745;55.914;37.554;2023-03-26T08:33:35;97425.37;;;9.87;64.31
31088;BME280;17745;55.914;37.554;2023-03-26T08:36:17;97426.94;;;9.88;64.27
31088;BME280;17745;55.914;37.554;2023-03-26T08:38:49;97415.50;;;9.79;64.33
31088;BME280;17745;55.914;37.554;2023-03-26T08:41:58;97401.69;;;9.68;64.40
31088;BME280;17745;55.914;37.554;2023-03-26T08:55:09;97397.13;;;9.54;64.90
31088;BME280;17745;55.914;37.554;2023-03-26T09:04:51;97396.19;;;9.64;64.88
31088;BME280;17745;55.914;37.554;2023-03-26T09:11:26;97361.84;;;9.64;64.72
31088;BME280;17745;55.914;37.554;2023-03-26T09:14:58;97366.72;;;9.57;64.89
31088;BME280;17745;55.914;37.554;2023-03-26T09:18:24;97368.56;;;9.56;65.03
31088;BME280;17745;55.914;37.554;2023-03-26T09:21:58;97357.13;;;9.61;65.20
31088;BME280;17745;55.914;37.554;2023-03-26T09:25:41;97357.34;;;9.65;65.03
31088;BME280;17745;55.914;37.554;2023-03-26T09:43:46;97341.13;;;9.71;65.67
31088;BME280;17745;55.914;37.554;2023-03-26T09:46:38;97341.37;;;9.70;65.92
31088;BME280;17745;55.914;37.554;2023-03-26T09:49:48;97348.34;;;9.66;66.06
31088;BME280;17745;55.914;37.554;2023-03-26T09:56:28;97346.28;;;9.77;66.11
31088;BME280;17745;55.914;37.554;2023-03-26T10:12:40;97327.50;;;9.78;66.55
31088;BME280;17745;55.914;37.554;2023-03-26T10:15:34;97319.56;;;9.78;66.73
31088;BME280;17745;55.914;37.554;2023-03-26T10:18:16;97312.03;;;9.85;66.85
31088;BME280;17745;55.914;37.554;2023-03-26T10:21:04;97312.13;;;9.94;66.70
31088;BME280;17745;55.914;37.554;2023-03-26T10:23:47;97317.81;;;10.01;66.70
31088;BME280;17745;55.914;37.554;2023-03-26T10:27:01;97317.91;;;10.10;66.71
31088;BME280;17745;55.914;37.554;2023-03-26T10:30:02;97313.97;;;10.22;66.72
31088;BME280;17745;55.914;37.554;2023-03-26T10:32:43;97309.34;;;10.27;66.82
31088;BME280;17745;55.914;37.554;2023-03-26T10:35:23;97314.06;;;10.30;66.84
31088;BME280;17745;55.914;37.554;2023-03-26T10:38:00;97312.88;;;10.37;67.00
31088;BME280;17745;55.914;37.554;2023-03-26T10:40:42;97306.19;;;10.39;67.08
31088;BME280;17745;55.914;37.554;2023-03-26T10:50:31;97298.84;;;10.50;67.27
31088;BME280;17745;55.914;37.554;2023-03-26T10:53:24;97298.06;;;10.50;67.43
31088;BME280;17745;55.914;37.554;2023-03-26T10:55:59;97300.44;;;10.51;67.45
31088;BME280;17745;55.914;37.554;2023-03-26T10:58:29;97298.66;;;10.47;67.57
31088;BME280;17745;55.914;37.554;2023-03-26T11:01:23;97293.44;;;10.55;67.54
31088;BME280;17745;55.914;37.554;2023-03-26T11:04:06;97294.22;;;10.56;67.60
31088;BME280;17745;55.914;37.554;2023-03-26T11:06:54;97285.28;;;10.66;67.58
31088;BME280;17745;55.914;37.554;2023-03-26T11:09:43;97281.25;;;10.68;67.50
31088;BME280;17745;55.914;37.554;2023-03-26T11:12:25;97282.34;;;10.67;67.67
31088;BME280;17745;55.914;37.554;2023-03-26T11:15:15;97281.53;;;10.67;67.73
31088;BME280;17745;55.914;37.554;2023-03-26T11:18:10;97278.91;;;10.67;67.70
31088;BME280;17745;55.914;37.554;2023-03-26T11:20:56;97271.44;;;10.69;67.88
31088;BME280;17745;55.914;37.554;2023-03-26T11:23:37;97279.44;;;10.78;67.72
31088;BME280;17745;55.914;37.554;2023-03-26T11:26:16;97269.66;;;10.78;67.80
31088;BME280;17745;55.914;37.554;2023-03-26T11:29:04;97276.50;;;10.79;67.98
31088;BME280;17745;55.914;37.554;2023-03-26T11:32:08;97267.94;;;10.82;68.05
31088;BME280;17745;55.914;37.554;2023-03-26T11:34:48;97268.56;;;10.79;68.01
31088;BME280;17745;55.914;37.554;2023-03-26T11:37:25;97267.59;;;10.75;67.83
31088;BME280;17745;55.914;37.554;2023-03-26T11:40:24;97262.00;;;10.77;67.99
31088;BME280;17745;55.914;37.554;2023-03-26T11:43:02;97256.03;;;10.71;67.95
31088;BME280;17745;55.914;37.554;2023-03-26T11:45:35;97255.75;;;10.72;68.02
31088;BME280;17745;55.914;37.554;2023-03-26T11:48:09;97251.72;;;10.75;68.16
31088;BME280;17745;55.914;37.554;2023-03-26T11:50:48;97250.31;;;10.78;68.36
31088;BME280;17745;55.914;37.554;2023-03-26T11:53:18;97259.53;;;10.80;68.42
31088;BME280;17745;55.914;37.554;2023-03-26T11:55:57;97265.78;;;10.84;68.35
31088;BME280;17745;55.914;37.554;2023-03-26T11:58:31;97259.13;;;10.87;68.13
31088;BME280;17745;55.914;37.554;2023-03-26T12:01:21;97257.41;;;10.91;68.15
31088;BME280;17745;55.914;37.554;2023-03-26T12:04:07;97258.09;;;10.97;68.29
31088;BME280;17745;55.914;37.554;2023-03-26T12:06:53;97251.22;;;10.96;68.26
31088;BME280;17745;55.914;37.554;2023-03-26T12:09:23;97245.31;;;10.99;68.32
31088;BME280;17745;55.914;37.554;2023-03-26T12:12:10;97248.31;;;11.06;68.15
31088;BME280;17745;55.914;37.554;2023-03-26T12:14:58;97237.00;;;11.14;68.20
31088;BME280;17745;55.914;37.554;2023-03-26T12:17:44;97240.28;;;11.20;68.14
31088;BME280;17745;55.914;37.554;2023-03-26T12:20:45;97238.72;;;11.19;67.90
31088;BME280;17745;55.914;37.554;2023-03-26T12:23:37;97235.44;;;11.13;68.17
31088;BME280;17745;55.914;37.554;2023-03-26T12:26:19;97236.53;;;11.12;68.32
31088;BME280;17745;55.914;37.554;2023-03-26T12:29:19;97235.91;;;11.15;68.22
31088;BME280;17745;55.914;37.554;2023-03-26T12:35:45;97227.66;;;11.17;68.36
31088;BME280;17745;55.914;37.554;2023-03-26T12:38:24;97215.81;;;11.14;68.48
31088;BME280;17745;55.914;37.554;2023-03-26T12:41:18;97216.91;;;11.13;68.51
31088;BME280;17745;55.914;37.554;2023-03-26T12:44:20;97224.22;;;11.17;68.64
31088;BME280;17745;55.914;37.554;2023-03-26T12:47:13;97210.84;;;11.22;68.61
31088;BME280;17745;55.914;37.554;2023-03-26T12:49:50;97209.56;;;11.19;68.83
31088;BME280;17745;55.914;37.554;2023-03-26T12:55:38;97209.63;;;11.28;68.91
31088;BME280;17745;55.914;37.554;2023-03-26T12:58:30;97205.25;;;11.23;69.05
31088;BME280;17745;55.914;37.554;2023-03-26T13:01:10;97201.97;;;11.18;69.20
31088;BME280;17745;55.914;37.554;2023-03-26T13:06:59;97201.47;;;11.15;69.54
31088;BME280;17745;55.914;37.554;2023-03-26T13:10:09;97205.22;;;11.14;69.47
31088;BME280;17745;55.914;37.554;2023-03-26T13:12:53;97203.66;;;11.13;69.61
31088;BME280;17745;55.914;37.554;2023-03-26T13:15:30;97205.69;;;11.17;69.57
31088;BME280;17745;55.914;37.554;2023-03-26T13:18:21;97195.56;;;11.19;69.28
31088;BME280;17745;55.914;37.554;2023-03-26T13:21:01;97207.28;;;11.26;69.41
31088;BME280;17745;55.914;37.554;2023-03-26T13:23:59;97198.53;;;11.26;69.24
31088;BME280;17745;55.914;37.554;2023-03-26T13:26:47;97200.06;;;11.18;69.48
31088;BME280;17745;55.914;37.554;2023-03-26T13:29:30;97196.03;;;11.21;69.58
31088;BME280;17745;55.914;37.554;2023-03-26T13:32:15;97196.03;;;11.21;69.30
31088;BME280;17745;55.914;37.554;2023-03-26T13:35:12;97194.47;;;11.20;69.50
31088;BME280;17745;55.914;37.554;2023-03-26T13:41:33;97192.44;;;11.17;69.47
31088;BME280;17745;55.914;37.554;2023-03-26T13:44:20;97184.31;;;11.13;69.27
31088;BME280;17745;55.914;37.554;2023-03-26T13:47:02;97188.84;;;11.12;69.28
31088;BME280;17745;55.914;37.554;2023-03-26T13:49:39;97190.53;;;11.08;69.32
31088;BME280;17745;55.914;37.554;2023-03-26T13:52:23;97195.72;;;11.13;69.14
31088;BME280;17745;55.914;37.554;2023-03-26T13:55:28;97182.19;;;11.24;69.05
31088;BME280;17745;55.914;37.554;2023-03-26T13:58:15;97183.91;;;11.28;68.70
31088;BME280;17745;55.914;37.554;2023-03-26T14:01:39;97184.69;;;11.29;68.58
31088;BME280;17745;55.914;37.554;2023-03-26T14:04:44;97172.72;;;11.32;68.49
31088;BME280;17745;55.914;37.554;2023-03-26T14:07:33;97181.41;;;11.32;68.52
31088;BME280;17745;55.914;37.554;2023-03-26T14:10:17;97171.63;;;11.33;68.47
31088;BME280;17745;55.914;37.554;2023-03-26T14:12:54;97168.66;;;11.25;68.36
31088;BME280;17745;55.914;37.554;2023-03-26T14:15:30;97176.84;;;11.15;68.52
31088;BME280;17745;55.914;37.554;2023-03-26T14:18:21;97171.53;;;11.06;68.80
31088;BME280;17745;55.914;37.554;2023-03-26T14:21:16;97174.50;;;11.05;68.78
31088;BME280;17745;55.914;37.554;2023-03-26T14:24:33;97180.25;;;11.07;68.68
31088;BME280;17745;55.914;37.554;2023-03-26T14:27:37;97187.59;;;11.10;68.42
31088;BME280;17745;55.914;37.554;2023-03-26T14:30:38;97187.53;;;11.01;68.69
31088;BME280;17745;55.914;37.554;2023-03-26T14:33:25;97176.97;;;11.01;68.75
31088;BME280;17745;55.914;37.554;2023-03-26T14:36:09;97176.47;;;10.99;68.86
31088;BME280;17745;55.914;37.554;2023-03-26T14:42:02;97184.16;;;11.09;68.72
31088;BME280;17745;55.914;37.554;2023-03-26T14:44:54;97190.41;;;11.13;68.42
31088;BME280;17745;55.914;37.554;2023-03-26T14:47:40;97192.09;;;11.09;68.46
31088;BME280;17745;55.914;37.554;2023-03-26T14:50:53;97188.03;;;11.03;68.64
31088;BME280;17745;55.914;37.554;2023-03-26T14:53:35;97175.06;;;11.01;68.66
31088;BME280;17745;55.914;37.554;2023-03-26T14:56:45;97183.16;;;10.96;68.63
31088;BME280;17745;55.914;37.554;2023-03-26T14:59:45;97174.13;;;10.97;68.66
31088;BME280;17745;55.914;37.554;2023-03-26T15:40:30;97165.41;;;10.65;68.80
31088;BME280;17745;55.914;37.554;2023-03-26T15:43:16;97169.78;;;10.70;68.71
31088;BME280;17745;55.914;37.554;2023-03-26T15:45:50;97172.13;;;10.71;68.44
31088;BME280;17745;55.914;37.554;2023-03-26T15:48:56;97179.19;;;10.76;68.18
31088;BME280;17745;55.914;37.554;2023-03-26T15:51:48;97175.13;;;10.79;68.17
31088;BME280;17745;55.914;37.554;2023-03-26T15:54:48;97180.41;;;10.79;68.21
31088;BME280;17745;55.914;37.554;2023-03-26T15:57:29;97178.84;;;10.78;68.15
31088;BME280;17745;55.914;37.554;2023-03-26T16:00:18;97180.56;;;10.73;68.17
31088;BME280;17745;55.914;37.554;2023-03-26T16:03:11;97193.12;;;10.68;68.25
31088;BME280;17745;55.914;37.554;2023-03-26T16:06:08;97180.03;;;10.63;68.22
31088;BME280;17745;55.914;37.554;2023-03-26T16:08:52;97178.75;;;10.60;68.22
31088;BME280;17745;55.914;37.554;2023-03-26T16:11:48;97188.28;;;10.61;68.23
31088;BME280;17745;55.914;37.554;2023-03-26T16:15:11;97180.03;;;10.63;68.17
31088;BME280;17745;55.914;37.554;2023-03-26T16:18:15;97180.37;;;10.70;68.08
31088;BME280;17745;55.914;37.554;2023-03-26T16:20:54;97183.63;;;10.67;67.97
31088;BME280;17745;55.914;37.554;2023-03-26T16:23:33;97183.75;;;10.62;68.13
31088;BME280;17745;55.914;37.554;2023-03-26T16:26:18;97176.00;;;10.65;68.13
31088;BME280;17745;55.914;37.554;2023-03-26T16:29:11;97179.78;;;10.73;68.05
31088;BME280;17745;55.914;37.554;2023-03-26T16:32:12;97183.50;;;10.72;67.89